sensor_id;sensor_type;location;lat;lon;timestamp;pressure;altitude;pressure_sealevel;temperature;humidity
8366;BME280;4220;42.502;24.188;2022-08-25T00:01:46;95006.78;;;20.35;100.00
8366;BME280;4220;42.502;24.188;2022-08-25T00:04:15;95004.53;;;20.13;100.00
8366;BME280;4220;42.502;24.188;2022-08-25T00:06:42;95004.16;;;19.96;100.00
8366;BME280;4220;42.502;24.188;2022-08-25T00:09:10;94966.66;;;19.32;100.00
8366;BME280;4220;42.502;24.188;2022-08-25T00:11:39;95003.34;;;19.62;100.00
8366;BME280;4220;42.502;24.188;2022-08-25T00:14:10;94998.25;;;19.60;100.00
8366;BME280;4220;42.502;24.188;2022-08-25T00:16:38;95011.59;;;19.75;100.00
8366;BME280;4220;42.502;24.188;2022-08-25T00:19:08;95004.53;;;19.84;100.00
8366;BME280;4220;42.502;24.188;2022-08-25T00:21:35;95020.59;;;19.94;100.00
8366;BME280;4220;42.502;24.188;2022-08-25T00:24:03;95020.03;;;19.97;100.00
8366;BME280;4220;42.502;24.188;2022-08-25T00:26:30;95014.69;;;19.92;100.00
8366;BME280;4220;42.502;24.188;2022-08-25T00:28:57;95013.03;;;19.96;100.00
8366;BME280;4220;42.502;24.188;2022-08-25T00:31:25;95020.03;;;19.97;100.00
8366;BME280;4220;42.502;24.188;2022-08-25T00:33:52;95021.31;;;20.05;100.00
8366;BME280;4220;42.502;24.188;2022-08-25T00:36:19;95033.91;;;20.14;100.00
8366;BME280;4220;42.502;24.188;2022-08-25T00:38:47;95029.53;;;20.24;100.00
8366;BME280;4220;42.502;24.188;2022-08-25T00:41:17;95027.59;;;20.29;100.00
8366;BME280;4220;42.502;24.188;2022-08-25T00:43:48;95028.91;;;19.98;100.00
8366;BME280;4220;42.502;24.188;2022-08-25T00:46:18;95021.06;;;20.01;100.00
8366;BME280;4220;42.502;24.188;2022-08-25T00:48:51;95021.56;;;20.08;100.00
8366;BME280;4220;42.502;24.188;2022-08-25T00:51:27;94978.75;;;19.73;100.00
8366;BME280;4220;42.502;24.188;2022-08-25T00:53:55;95009.13;;;19.79;100.00
8366;BME280;4220;42.502;24.188;2022-08-25T00:56:23;95022.91;;;19.72;100.00
8366;BME280;4220;42.502;24.188;2022-08-25T00:58:51;95021.00;;;19.78;100.00
8366;BME280;4220;42.502;24.188;2022-08-25T01:01:18;95020.63;;;19.89;100.00
8366;BME280;4220;42.502;24.188;2022-08-25T01:03:47;95027.19;;;20.12;100.00
8366;BME280;4220;42.502;24.188;2022-08-25T01:06:14;95033.59;;;20.16;100.00
8366;BME280;4220;42.502;24.188;2022-08-25T01:08:41;95032.25;;;20.18;100.00
8366;BME280;4220;42.502;24.188;2022-08-25T01:11:09;95034.31;;;20.32;100.00
8366;BME280;4220;42.502;24.188;2022-08-25T01:13:40;94977.97;;;20.06;100.00
8366;BME280;4220;42.502;24.188;2022-08-25T01:16:10;95028.16;;;20.26;100.00
8366;BME280;4220;42.502;24.188;2022-08-25T01:18:47;95028.44;;;20.25;100.00
8366;BME280;4220;42.502;24.188;2022-08-25T01:21:17;95006.28;;;20.33;100.00
8366;BME280;4220;42.502;24.188;2022-08-25T01:23:45;95014.22;;;20.48;100.00
8366;BME280;4220;42.502;24.188;2022-08-25T01:26:14;95008.66;;;20.39;100.00
8366;BME280;4220;42.502;24.188;2022-08-25T01:28:46;95006.63;;;20.26;100.00
8366;BME280;4220;42.502;24.188;2022-08-25T01:31:31;95002.47;;;20.39;100.00
8366;BME280;4220;42.502;24.188;2022-08-25T01:33:58;94998.97;;;20.38;100.00
8366;BME280;4220;42.502;24.188;2022-08-25T01:36:28;95010.75;;;20.42;100.00
8366;BME280;4220;42.502;24.188;2022-08-25T01:38:55;95013.19;;;20.44;100.00
8366;BME280;4220;42.502;24.188;2022-08-25T01:41:30;95003.38;;;20.29;100.00
8366;BME280;4220;42.502;24.188;2022-08-25T01:44:01;95004.91;;;20.35;100.00
8366;BME280;4220;42.502;24.188;2022-08-25T01:46:30;94995.50;;;20.33;100.00
8366;BME280;4220;42.502;24.188;2022-08-25T01:48:58;94994.38;;;20.39;100.00
8366;BME280;4220;42.502;24.188;2022-08-25T01:51:28;94989.31;;;20.32;100.00
8366;BME280;4220;42.502;24.188;2022-08-25T01:53:55;94988.78;;;20.30;100.00
8366;BME280;4220;42.502;24.188;2022-08-25T01:56:22;94979.66;;;20.31;100.00
8366;BME280;4220;42.502;24.188;2022-08-25T01:58:49;94985.97;;;20.45;100.00
8366;BME280;4220;42.502;24.188;2022-08-25T02:01:18;94982.97;;;20.47;100.00
8366;BME280;4220;42.502;24.188;2022-08-25T02:03:47;94963.66;;;20.40;100.00
8366;BME280;4220;42.502;24.188;2022-08-25T02:06:20;94979.16;;;20.53;100.00
8366;BME280;4220;42.502;24.188;2022-08-25T02:08:50;94979.84;;;20.35;100.00
8366;BME280;4220;42.502;24.188;2022-08-25T02:11:18;94975.56;;;20.34;100.00
8366;BME280;4220;42.502;24.188;2022-08-25T02:13:45;94978.38;;;20.18;100.00
8366;BME280;4220;42.502;24.188;2022-08-25T02:16:17;94981.56;;;20.26;100.00
8366;BME280;4220;42.502;24.188;2022-08-25T02:18:45;94973.81;;;20.19;100.00
8366;BME280;4220;42.502;24.188;2022-08-25T02:21:12;94972.75;;;19.86;100.00
8366;BME280;4220;42.502;24.188;2022-08-25T02:23:39;94964.22;;;19.74;100.00
8366;BME280;4220;42.502;24.188;2022-08-25T02:26:07;94966.28;;;19.87;100.00
8366;BME280;4220;42.502;24.188;2022-08-25T02:28:35;94974.16;;;20.07;100.00
8366;BME280;4220;42.502;24.188;2022-08-25T02:31:02;94980.31;;;20.13;100.00
8366;BME280;4220;42.502;24.188;2022-08-25T02:33:29;94980.28;;;20.18;100.00
8366;BME280;4220;42.502;24.188;2022-08-25T02:35:57;94975.19;;;20.16;100.00
8366;BME280;4220;42.502;24.188;2022-08-25T02:38:25;94968.41;;;20.19;100.00
8366;BME280;4220;42.502;24.188;2022-08-25T02:40:54;94981.06;;;20.24;100.00
8366;BME280;4220;42.502;24.188;2022-08-25T02:43:23;94976.47;;;20.24;100.00
8366;BME280;4220;42.502;24.188;2022-08-25T02:45:50;94975.72;;;20.13;100.00
8366;BME280;4220;42.502;24.188;2022-08-25T02:48:17;94968.66;;;20.23;100.00
8366;BME280;4220;42.502;24.188;2022-08-25T02:50:46;94980.00;;;20.19;100.00
8366;BME280;4220;42.502;24.188;2022-08-25T02:53:13;94955.88;;;19.76;100.00
8366;BME280;4220;42.502;24.188;2022-08-25T02:55:40;94961.16;;;19.86;100.00
8366;BME280;4220;42.502;24.188;2022-08-25T02:58:07;94966.56;;;19.86;100.00
8366;BME280;4220;42.502;24.188;2022-08-25T03:00:36;94936.06;;;19.62;100.00
8366;BME280;4220;42.502;24.188;2022-08-25T03:03:04;94968.56;;;19.70;100.00
8366;BME280;4220;42.502;24.188;2022-08-25T03:05:31;94971.00;;;19.67;100.00
8366;BME280;4220;42.502;24.188;2022-08-25T03:07:58;94957.56;;;19.67;100.00
8366;BME280;4220;42.502;24.188;2022-08-25T03:10:25;94970.38;;;19.80;100.00
8366;BME280;4220;42.502;24.188;2022-08-25T03:12:52;94964.47;;;19.78;100.00
8366;BME280;4220;42.502;24.188;2022-08-25T03:15:19;94970.00;;;19.91;100.00
8366;BME280;4220;42.502;24.188;2022-08-25T03:17:48;94976.56;;;19.80;100.00
8366;BME280;4220;42.502;24.188;2022-08-25T03:20:15;94973.38;;;19.73;100.00
8366;BME280;4220;42.502;24.188;2022-08-25T03:22:42;94968.84;;;19.69;100.00
8366;BME280;4220;42.502;24.188;2022-08-25T03:25:09;94970.19;;;19.66;100.00
8366;BME280;4220;42.502;24.188;2022-08-25T03:27:53;94961.53;;;19.74;100.00
8366;BME280;4220;42.502;24.188;2022-08-25T03:30:20;94969.03;;;19.82;100.00
8366;BME280;4220;42.502;24.188;2022-08-25T03:32:49;94966.28;;;19.87;100.00
8366;BME280;4220;42.502;24.188;2022-08-25T03:35:16;94976.06;;;19.73;100.00
8366;BME280;4220;42.502;24.188;2022-08-25T03:37:43;94972.56;;;19.78;100.00
8366;BME280;4220;42.502;24.188;2022-08-25T03:40:12;94956.81;;;19.56;100.00
8366;BME280;4220;42.502;24.188;2022-08-25T03:42:39;94949.97;;;19.35;100.00
8366;BME280;4220;42.502;24.188;2022-08-25T03:45:07;94972.44;;;19.54;100.00
8366;BME280;4220;42.502;24.188;2022-08-25T03:47:36;94975.84;;;19.70;100.00
8366;BME280;4220;42.502;24.188;2022-08-25T03:50:07;94941.47;;;19.62;100.00
8366;BME280;4220;42.502;24.188;2022-08-25T03:52:35;94979.75;;;19.87;100.00
8366;BME280;4220;42.502;24.188;2022-08-25T03:55:04;94975.91;;;19.93;100.00
8366;BME280;4220;42.502;24.188;2022-08-25T03:57:31;94978.56;;;19.98;100.00
8366;BME280;4220;42.502;24.188;2022-08-25T03:59:58;94976.72;;;19.94;100.00
8366;BME280;4220;42.502;24.188;2022-08-25T04:02:25;94968.25;;;20.05;100.00
8366;BME280;4220;42.502;24.188;2022-08-25T04:04:52;94977.66;;;20.08;100.00
8366;BME280;4220;42.502;24.188;2022-08-25T04:07:20;94967.63;;;20.18;100.00
8366;BME280;4220;42.502;24.188;2022-08-25T04:09:47;94958.97;;;20.27;100.00
8366;BME280;4220;42.502;24.188;2022-08-25T04:12:14;94958.97;;;20.27;100.00
8366;BME280;4220;42.502;24.188;2022-08-25T04:14:41;94953.84;;;20.20;100.00
8366;BME280;4220;42.502;24.188;2022-08-25T04:17:07;94953.84;;;20.25;100.00
8366;BME280;4220;42.502;24.188;2022-08-25T04:19:34;94960.03;;;20.26;100.00
8366;BME280;4220;42.502;24.188;2022-08-25T04:22:01;94964.47;;;20.40;100.00
8366;BME280;4220;42.502;24.188;2022-08-25T04:24:30;94953.81;;;20.54;100.00
8366;BME280;4220;42.502;24.188;2022-08-25T04:26:56;94952.41;;;20.61;100.00
8366;BME280;4220;42.502;24.188;2022-08-25T04:29:24;94959.56;;;20.71;100.00
8366;BME280;4220;42.502;24.188;2022-08-25T04:31:52;94959.66;;;20.84;100.00
8366;BME280;4220;42.502;24.188;2022-08-25T04:34:22;94963.66;;;20.87;100.00
8366;BME280;4220;42.502;24.188;2022-08-25T04:36:50;94956.06;;;20.89;100.00
8366;BME280;4220;42.502;24.188;2022-08-25T04:39:17;94957.38;;;20.73;100.00
8366;BME280;4220;42.502;24.188;2022-08-25T04:41:46;94961.59;;;20.79;100.00
8366;BME280;4220;42.502;24.188;2022-08-25T04:44:14;94955.63;;;20.82;100.00
8366;BME280;4220;42.502;24.188;2022-08-25T04:46:41;94961.91;;;20.96;100.00
8366;BME280;4220;42.502;24.188;2022-08-25T04:49:08;94944.66;;;20.97;100.00
8366;BME280;4220;42.502;24.188;2022-08-25T04:51:37;94955.94;;;20.99;100.00
8366;BME280;4220;42.502;24.188;2022-08-25T04:54:07;94956.94;;;20.84;100.00
8366;BME280;4220;42.502;24.188;2022-08-25T04:56:35;94951.72;;;20.69;100.00
8366;BME280;4220;42.502;24.188;2022-08-25T04:59:06;94959.66;;;20.84;100.00
8366;BME280;4220;42.502;24.188;2022-08-25T05:01:33;94966.69;;;21.04;100.00
8366;BME280;4220;42.502;24.188;2022-08-25T05:04:01;94961.81;;;21.06;100.00
8366;BME280;4220;42.502;24.188;2022-08-25T05:06:29;94957.09;;;21.17;100.00
8366;BME280;4220;42.502;24.188;2022-08-25T05:08:57;94960.97;;;21.29;100.00
8366;BME280;4220;42.502;24.188;2022-08-25T05:11:25;94969.00;;;21.34;100.00
8366;BME280;4220;42.502;24.188;2022-08-25T05:13:54;94969.66;;;21.45;100.00
8366;BME280;4220;42.502;24.188;2022-08-25T05:16:25;94971.50;;;21.49;100.00
8366;BME280;4220;42.502;24.188;2022-08-25T05:18:52;94964.25;;;21.45;100.00
8366;BME280;4220;42.502;24.188;2022-08-25T05:21:25;94974.25;;;21.44;100.00
8366;BME280;4220;42.502;24.188;2022-08-25T05:23:54;94984.88;;;21.36;100.00
8366;BME280;4220;42.502;24.188;2022-08-25T05:26:23;94981.38;;;21.35;100.00
8366;BME280;4220;42.502;24.188;2022-08-25T05:28:51;94975.19;;;21.54;100.00
8366;BME280;4220;42.502;24.188;2022-08-25T05:31:20;94976.78;;;21.73;100.00
8366;BME280;4220;42.502;24.188;2022-08-25T05:33:49;94971.09;;;21.93;100.00
8366;BME280;4220;42.502;24.188;2022-08-25T05:36:20;94982.97;;;22.11;100.00
8366;BME280;4220;42.502;24.188;2022-08-25T05:38:47;94943.03;;;22.08;100.00
8366;BME280;4220;42.502;24.188;2022-08-25T05:41:17;94980.13;;;22.48;100.00
8366;BME280;4220;42.502;24.188;2022-08-25T05:43:45;94988.88;;;22.59;100.00
8366;BME280;4220;42.502;24.188;2022-08-25T05:46:14;94982.09;;;22.61;100.00
8366;BME280;4220;42.502;24.188;2022-08-25T05:48:41;94977.50;;;22.62;100.00
8366;BME280;4220;42.502;24.188;2022-08-25T05:51:10;94981.06;;;22.57;100.00
8366;BME280;4220;42.502;24.188;2022-08-25T05:53:39;94976.38;;;22.63;100.00
8366;BME280;4220;42.502;24.188;2022-08-25T05:56:07;94978.97;;;22.68;100.00
8366;BME280;4220;42.502;24.188;2022-08-25T05:58:34;94975.28;;;22.64;100.00
8366;BME280;4220;42.502;24.188;2022-08-25T06:01:05;94970.38;;;22.66;100.00
8366;BME280;4220;42.502;24.188;2022-08-25T06:03:45;94947.09;;;22.51;100.00
8366;BME280;4220;42.502;24.188;2022-08-25T06:06:14;94962.72;;;22.54;100.00
8366;BME280;4220;42.502;24.188;2022-08-25T06:08:41;94962.72;;;22.54;100.00
8366;BME280;4220;42.502;24.188;2022-08-25T06:11:09;94961.34;;;22.57;100.00
8366;BME280;4220;42.502;24.188;2022-08-25T06:13:36;94960.69;;;22.65;100.00
8366;BME280;4220;42.502;24.188;2022-08-25T06:16:03;94956.75;;;22.71;100.00
8366;BME280;4220;42.502;24.188;2022-08-25T06:18:30;94965.09;;;22.74;100.00
8366;BME280;4220;42.502;24.188;2022-08-25T06:20:57;94958.47;;;22.81;100.00
8366;BME280;4220;42.502;24.188;2022-08-25T06:23:25;94964.19;;;22.79;100.00
8366;BME280;4220;42.502;24.188;2022-08-25T06:25:53;94966.19;;;22.87;100.00
8366;BME280;4220;42.502;24.188;2022-08-25T06:28:20;94965.28;;;22.92;100.00
8366;BME280;4220;42.502;24.188;2022-08-25T06:30:47;94968.69;;;22.97;100.00
8366;BME280;4220;42.502;24.188;2022-08-25T06:33:14;94973.78;;;22.99;100.00
8366;BME280;4220;42.502;24.188;2022-08-25T06:35:42;94959.66;;;22.88;100.00
8366;BME280;4220;42.502;24.188;2022-08-25T06:38:10;94970.19;;;23.03;100.00
8366;BME280;4220;42.502;24.188;2022-08-25T06:40:38;94970.28;;;23.12;100.00
8366;BME280;4220;42.502;24.188;2022-08-25T06:43:05;94969.66;;;23.15;100.00
8366;BME280;4220;42.502;24.188;2022-08-25T06:45:33;94939.16;;;22.87;100.00
8366;BME280;4220;42.502;24.188;2022-08-25T06:48:00;94967.88;;;23.10;100.00
8366;BME280;4220;42.502;24.188;2022-08-25T06:50:27;94966.16;;;23.14;100.00
8366;BME280;4220;42.502;24.188;2022-08-25T06:52:54;94970.66;;;23.19;100.00
8366;BME280;4220;42.502;24.188;2022-08-25T06:55:21;94973.44;;;23.27;100.00
8366;BME280;4220;42.502;24.188;2022-08-25T06:57:51;94976.28;;;23.36;100.00
8366;BME280;4220;42.502;24.188;2022-08-25T07:00:18;94966.66;;;23.44;100.00
8366;BME280;4220;42.502;24.188;2022-08-25T07:02:45;94969.25;;;23.49;100.00
8366;BME280;4220;42.502;24.188;2022-08-25T07:05:12;94960.75;;;23.42;100.00
8366;BME280;4220;42.502;24.188;2022-08-25T07:07:39;94953.41;;;23.42;100.00
8366;BME280;4220;42.502;24.188;2022-08-25T07:10:07;94955.38;;;23.50;100.00
8366;BME280;4220;42.502;24.188;2022-08-25T07:12:34;94947.16;;;23.55;100.00
8366;BME280;4220;42.502;24.188;2022-08-25T07:15:04;94939.84;;;23.56;99.56
8366;BME280;4220;42.502;24.188;2022-08-25T07:17:31;94940.69;;;23.65;100.00
8366;BME280;4220;42.502;24.188;2022-08-25T07:19:57;94931.16;;;23.67;99.61
8366;BME280;4220;42.502;24.188;2022-08-25T07:22:24;94938.25;;;23.77;99.95
8366;BME280;4220;42.502;24.188;2022-08-25T07:24:51;94932.91;;;23.85;100.00
8366;BME280;4220;42.502;24.188;2022-08-25T07:27:18;94926.72;;;23.93;99.62
8366;BME280;4220;42.502;24.188;2022-08-25T07:29:45;94930.22;;;24.08;98.92
8366;BME280;4220;42.502;24.188;2022-08-25T07:32:15;94924.53;;;24.18;95.88
8366;BME280;4220;42.502;24.188;2022-08-25T07:34:42;94915.03;;;24.29;94.46
8366;BME280;4220;42.502;24.188;2022-08-25T07:37:26;94924.31;;;24.36;94.16
8366;BME280;4220;42.502;24.188;2022-08-25T07:39:53;94933.88;;;24.42;94.50
8366;BME280;4220;42.502;24.188;2022-08-25T07:42:20;94925.94;;;24.46;94.12
8366;BME280;4220;42.502;24.188;2022-08-25T07:44:47;94927.59;;;24.55;91.81
8366;BME280;4220;42.502;24.188;2022-08-25T07:47:15;94936.72;;;24.68;91.24
8366;BME280;4220;42.502;24.188;2022-08-25T07:49:42;94933.63;;;24.83;91.34
8366;BME280;4220;42.502;24.188;2022-08-25T07:52:09;94919.50;;;24.64;90.29
8366;BME280;4220;42.502;24.188;2022-08-25T07:54:36;94929.00;;;24.84;90.83
8366;BME280;4220;42.502;24.188;2022-08-25T07:57:04;94946.38;;;24.83;89.99
8366;BME280;4220;42.502;24.188;2022-08-25T07:59:31;94936.50;;;24.87;89.63
8366;BME280;4220;42.502;24.188;2022-08-25T08:01:58;94940.41;;;25.03;89.76
8366;BME280;4220;42.502;24.188;2022-08-25T08:04:26;94933.38;;;25.10;86.88
8366;BME280;4220;42.502;24.188;2022-08-25T08:06:53;94913.06;;;24.99;88.47
8366;BME280;4220;42.502;24.188;2022-08-25T08:09:20;94952.69;;;25.09;87.44
8366;BME280;4220;42.502;24.188;2022-08-25T08:11:47;94921.91;;;25.13;85.75
8366;BME280;4220;42.502;24.188;2022-08-25T08:14:14;94927.47;;;25.17;85.51
8366;BME280;4220;42.502;24.188;2022-08-25T08:16:41;94936.09;;;25.19;85.06
8366;BME280;4220;42.502;24.188;2022-08-25T08:19:08;94945.19;;;25.14;85.34
8366;BME280;4220;42.502;24.188;2022-08-25T08:21:36;94913.75;;;25.13;84.40
8366;BME280;4220;42.502;24.188;2022-08-25T08:24:03;94922.09;;;25.34;83.12
8366;BME280;4220;42.502;24.188;2022-08-25T08:26:31;94929.16;;;25.52;83.32
8366;BME280;4220;42.502;24.188;2022-08-25T08:28:58;94924.69;;;25.73;82.35
8366;BME280;4220;42.502;24.188;2022-08-25T08:31:26;94924.03;;;25.51;81.61
8366;BME280;4220;42.502;24.188;2022-08-25T08:33:55;94924.19;;;25.63;83.18
8366;BME280;4220;42.502;24.188;2022-08-25T08:36:23;94925.31;;;25.87;81.48
8366;BME280;4220;42.502;24.188;2022-08-25T08:38:52;94932.69;;;25.87;78.92
8366;BME280;4220;42.502;24.188;2022-08-25T08:41:45;94936.97;;;25.88;78.95
8366;BME280;4220;42.502;24.188;2022-08-25T08:44:38;94925.63;;;25.86;79.17
8366;BME280;4220;42.502;24.188;2022-08-25T08:47:11;94936.34;;;25.91;78.17
8366;BME280;4220;42.502;24.188;2022-08-25T08:49:48;94921.97;;;25.99;78.48
8366;BME280;4220;42.502;24.188;2022-08-25T08:52:23;94930.41;;;26.06;77.80
8366;BME280;4220;42.502;24.188;2022-08-25T08:55:01;94915.09;;;26.02;77.77
8366;BME280;4220;42.502;24.188;2022-08-25T08:57:31;94919.06;;;26.04;78.13
8366;BME280;4220;42.502;24.188;2022-08-25T09:00:04;94942.41;;;26.05;78.16
8366;BME280;4220;42.502;24.188;2022-08-25T09:02:34;94921.44;;;26.23;76.51
8366;BME280;4220;42.502;24.188;2022-08-25T09:05:07;94886.44;;;26.21;75.63
8366;BME280;4220;42.502;24.188;2022-08-25T09:07:40;94941.38;;;26.52;73.69
8366;BME280;4220;42.502;24.188;2022-08-25T09:10:14;94925.97;;;26.65;74.55
8366;BME280;4220;42.502;24.188;2022-08-25T09:12:43;94924.31;;;26.81;75.83
8366;BME280;4220;42.502;24.188;2022-08-25T09:15:17;94932.38;;;27.07;72.93
8366;BME280;4220;42.502;24.188;2022-08-25T09:18:04;94941.03;;;27.30;72.15
8366;BME280;4220;42.502;24.188;2022-08-25T09:20:39;94906.75;;;27.29;72.04
8366;BME280;4220;42.502;24.188;2022-08-25T09:23:18;94944.06;;;27.57;69.44
8366;BME280;4220;42.502;24.188;2022-08-25T09:25:59;94943.88;;;27.62;70.14
8366;BME280;4220;42.502;24.188;2022-08-25T09:28:31;94910.56;;;27.36;70.77
8366;BME280;4220;42.502;24.188;2022-08-25T09:31:00;94950.84;;;27.93;70.40
8366;BME280;4220;42.502;24.188;2022-08-25T09:33:32;94954.81;;;28.36;68.13
8366;BME280;4220;42.502;24.188;2022-08-25T09:36:00;94963.81;;;28.82;67.11
8366;BME280;4220;42.502;24.188;2022-08-25T09:38:27;94963.97;;;29.22;65.67
8366;BME280;4220;42.502;24.188;2022-08-25T09:40:58;94946.22;;;29.28;63.50
8366;BME280;4220;42.502;24.188;2022-08-25T09:43:31;94940.72;;;28.79;65.29
8366;BME280;4220;42.502;24.188;2022-08-25T09:46:00;94935.47;;;28.62;64.84
8366;BME280;4220;42.502;24.188;2022-08-25T09:48:28;94920.91;;;28.70;65.27
8366;BME280;4220;42.502;24.188;2022-08-25T09:51:11;94903.28;;;28.80;66.12
8366;BME280;4220;42.502;24.188;2022-08-25T09:53:44;94941.41;;;29.49;65.71
8366;BME280;4220;42.502;24.188;2022-08-25T09:56:18;94939.78;;;29.84;64.79
8366;BME280;4220;42.502;24.188;2022-08-25T09:58:46;94938.03;;;29.92;63.49
8366;BME280;4220;42.502;24.188;2022-08-25T10:01:15;94928.72;;;29.68;64.60
8366;BME280;4220;42.502;24.188;2022-08-25T10:03:55;94933.75;;;29.66;64.05
8366;BME280;4220;42.502;24.188;2022-08-25T10:06:23;94931.69;;;29.63;64.09
8366;BME280;4220;42.502;24.188;2022-08-25T10:08:55;94928.72;;;29.68;64.81
8366;BME280;4220;42.502;24.188;2022-08-25T10:11:40;94924.00;;;29.93;64.51
8366;BME280;4220;42.502;24.188;2022-08-25T10:14:20;94931.97;;;29.98;63.73
8366;BME280;4220;42.502;24.188;2022-08-25T10:16:48;94929.50;;;29.81;64.02
8366;BME280;4220;42.502;24.188;2022-08-25T10:19:23;94927.09;;;29.92;64.82
8366;BME280;4220;42.502;24.188;2022-08-25T10:22:06;94902.13;;;30.21;63.46
8366;BME280;4220;42.502;24.188;2022-08-25T10:24:33;94916.97;;;30.79;61.31
8366;BME280;4220;42.502;24.188;2022-08-25T10:27:11;94916.19;;;31.25;61.15
8366;BME280;4220;42.502;24.188;2022-08-25T10:30:00;94920.25;;;31.66;60.23
8366;BME280;4220;42.502;24.188;2022-08-25T10:32:41;94912.56;;;31.72;59.01
8366;BME280;4220;42.502;24.188;2022-08-25T10:35:14;94912.56;;;31.91;59.36
8366;BME280;4220;42.502;24.188;2022-08-25T10:37:46;94911.84;;;31.94;56.12
8366;BME280;4220;42.502;24.188;2022-08-25T10:40:22;94900.66;;;31.83;56.54
8366;BME280;4220;42.502;24.188;2022-08-25T10:43:01;94910.25;;;31.93;56.56
8366;BME280;4220;42.502;24.188;2022-08-25T10:45:36;94902.94;;;32.16;55.67
8366;BME280;4220;42.502;24.188;2022-08-25T10:48:27;94898.03;;;32.48;55.60
8366;BME280;4220;42.502;24.188;2022-08-25T10:51:01;94903.75;;;32.39;55.78
8366;BME280;4220;42.502;24.188;2022-08-25T10:53:38;94895.03;;;31.95;56.07
8366;BME280;4220;42.502;24.188;2022-08-25T10:56:09;94894.38;;;32.02;56.01
8366;BME280;4220;42.502;24.188;2022-08-25T10:59:03;94892.75;;;32.39;55.29
8366;BME280;4220;42.502;24.188;2022-08-25T11:01:46;94894.53;;;32.70;54.40
8366;BME280;4220;42.502;24.188;2022-08-25T11:04:21;94885.41;;;32.88;53.73
8366;BME280;4220;42.502;24.188;2022-08-25T11:06:55;94878.78;;;32.89;51.23
8366;BME280;4220;42.502;24.188;2022-08-25T11:09:28;94886.72;;;32.94;52.22
8366;BME280;4220;42.502;24.188;2022-08-25T11:11:59;94879.66;;;33.20;52.99
8366;BME280;4220;42.502;24.188;2022-08-25T11:14:32;94874.91;;;33.43;51.28
8366;BME280;4220;42.502;24.188;2022-08-25T11:17:04;94884.50;;;33.82;51.25
8366;BME280;4220;42.502;24.188;2022-08-25T11:19:35;94884.97;;;34.17;49.29
8366;BME280;4220;42.502;24.188;2022-08-25T11:22:07;94881.81;;;34.52;47.59
8366;BME280;4220;42.502;24.188;2022-08-25T11:24:45;94881.66;;;34.75;46.20
8366;BME280;4220;42.502;24.188;2022-08-25T11:27:17;94877.31;;;34.74;44.87
8366;BME280;4220;42.502;24.188;2022-08-25T11:30:03;94879.69;;;34.75;45.02
8366;BME280;4220;42.502;24.188;2022-08-25T11:32:31;94876.41;;;35.03;45.58
8366;BME280;4220;42.502;24.188;2022-08-25T11:35:00;94852.81;;;35.06;46.27
8366;BME280;4220;42.502;24.188;2022-08-25T11:37:28;94878.69;;;34.20;46.73
8366;BME280;4220;42.502;24.188;2022-08-25T11:43:12;94859.38;;;33.28;49.31
8366;BME280;4220;42.502;24.188;2022-08-25T11:45:52;94842.84;;;33.02;50.47
8366;BME280;4220;42.502;24.188;2022-08-25T11:48:30;94823.84;;;32.89;50.53
8366;BME280;4220;42.502;24.188;2022-08-25T11:51:03;94861.19;;;32.94;49.76
8366;BME280;4220;42.502;24.188;2022-08-25T11:53:33;94861.88;;;32.87;51.04
8366;BME280;4220;42.502;24.188;2022-08-25T11:56:02;94856.53;;;32.75;51.71
8366;BME280;4220;42.502;24.188;2022-08-25T11:58:36;94847.44;;;32.26;52.28
8366;BME280;4220;42.502;24.188;2022-08-25T12:01:08;94854.47;;;32.04;52.54
8366;BME280;4220;42.502;24.188;2022-08-25T12:03:49;94854.81;;;32.22;52.58
8366;BME280;4220;42.502;24.188;2022-08-25T12:06:23;94855.22;;;32.01;52.96
8366;BME280;4220;42.502;24.188;2022-08-25T12:08:53;94849.41;;;31.33;54.83
8366;BME280;4220;42.502;24.188;2022-08-25T12:11:49;94851.31;;;31.14;56.15
8366;BME280;4220;42.502;24.188;2022-08-25T12:14:45;94857.16;;;31.12;55.76
8366;BME280;4220;42.502;24.188;2022-08-25T12:17:23;94854.19;;;31.36;55.25
8366;BME280;4220;42.502;24.188;2022-08-25T12:19:54;94846.16;;;31.62;55.30
8366;BME280;4220;42.502;24.188;2022-08-25T12:22:53;94809.47;;;31.90;52.79
8366;BME280;4220;42.502;24.188;2022-08-25T12:28:36;94864.97;;;32.21;52.78
8366;BME280;4220;42.502;24.188;2022-08-25T12:31:15;94854.41;;;31.82;53.95
8366;BME280;4220;42.502;24.188;2022-08-25T12:33:52;94853.47;;;31.39;55.03
8366;BME280;4220;42.502;24.188;2022-08-25T12:36:26;94856.19;;;31.20;55.73
8366;BME280;4220;42.502;24.188;2022-08-25T12:39:08;94856.28;;;30.77;55.59
8366;BME280;4220;42.502;24.188;2022-08-25T12:41:53;94851.56;;;30.15;58.22
8366;BME280;4220;42.502;24.188;2022-08-25T12:44:34;94857.72;;;30.27;58.00
8366;BME280;4220;42.502;24.188;2022-08-25T12:47:27;94858.69;;;30.78;57.00
8366;BME280;4220;42.502;24.188;2022-08-25T12:53:16;94857.69;;;31.91;55.42
8366;BME280;4220;42.502;24.188;2022-08-25T12:55:50;94860.53;;;32.36;54.19
8366;BME280;4220;42.502;24.188;2022-08-25T12:58:18;94860.16;;;32.79;53.21
8366;BME280;4220;42.502;24.188;2022-08-25T13:00:57;94861.31;;;32.78;52.05
8366;BME280;4220;42.502;24.188;2022-08-25T13:03:52;94856.28;;;32.39;52.32
8366;BME280;4220;42.502;24.188;2022-08-25T13:12:20;94860.22;;;33.32;50.70
8366;BME280;4220;42.502;24.188;2022-08-25T13:14:52;94865.22;;;33.52;50.85
8366;BME280;4220;42.502;24.188;2022-08-25T13:17:26;94862.75;;;32.50;53.15
8366;BME280;4220;42.502;24.188;2022-08-25T13:20:12;94856.09;;;32.28;54.21
8366;BME280;4220;42.502;24.188;2022-08-25T13:22:40;94842.59;;;32.19;54.63
8366;BME280;4220;42.502;24.188;2022-08-25T13:25:16;94860.75;;;32.05;54.49
8366;BME280;4220;42.502;24.188;2022-08-25T13:27:47;94855.97;;;32.21;54.63
8366;BME280;4220;42.502;24.188;2022-08-25T13:30:22;94848.69;;;32.51;54.39
8366;BME280;4220;42.502;24.188;2022-08-25T13:32:50;94855.03;;;32.78;53.29
8366;BME280;4220;42.502;24.188;2022-08-25T13:35:19;94852.38;;;33.08;52.68
8366;BME280;4220;42.502;24.188;2022-08-25T13:37:46;94850.91;;;33.40;52.14
8366;BME280;4220;42.502;24.188;2022-08-25T13:40:22;94856.66;;;33.54;50.82